Flight Track Log - Related Links

Times and Time Zones

All times are in EDT time to prevent confusion due to time zone crossing. See the N5DA flight status page for this flight to view local times or setup timezone preferences in your user account.

Time Position Orientation Groundspeed Altitude Reporting Facility
EDT Latitude Longitude Course Direction KTS MPH feet Rate Location/Type
Fri 03:50:46 PM 32.1678 -81.2064 288° West 177 204 2,200  Level Jacksonville Center
Fri 03:51:46 PM 32.2100 -81.2475 321° Northwest 267 307 5,900 3,850 Climbing Jacksonville Center
Fri 03:52:46 PM 32.2528 -81.3156 307° West 274 315 9,900 3,100 Climbing Jacksonville Center
Fri 03:53:46 PM 32.3061 -81.4103 304° West 287 330 12,100 2,650 Climbing Jacksonville Center
Fri 03:54:46 PM 32.3447 -81.5131 294° West 330 380 15,200 3,050 Climbing Jacksonville Center
Fri 03:55:46 PM 32.3628 -81.6236 281° West 363 418 18,200 2,450 Climbing Jacksonville Center
Fri 03:56:00 PM 32.2823 -81.8461 288° West  Level FlightAware Approximate
Fri 03:56:46 PM 32.3828 -81.7561 280° West 382 440 20,100  Level Jacksonville Center
Fri 03:57:46 PM 32.4025 -81.8714 281° West 396 456 22,200 1,851 Climbing Jacksonville Center
Fri 03:58:20 PM 32.4156 -81.9500 281° West 396 456 23,000 511 Climbing Atlanta Center
Fri 03:59:20 PM 32.4364 -82.0797 281° West 403 464 23,000  Level Atlanta Center
Fri 04:00:20 PM 32.4594 -82.2122 282° West 408 470 23,000 200 Level Atlanta Center
Fri 04:01:20 PM 32.4800 -82.3375 281° West 408 470 23,400 1,750 Climbing Atlanta Center
Fri 04:02:20 PM 32.5025 -82.4675 282° West 413 475 26,500 3,100 Climbing Atlanta Center
Fri 04:03:20 PM 32.5253 -82.6050 281° West 413 475 29,600 2,750 Climbing Atlanta Center
Fri 04:04:20 PM 32.5456 -82.7403 280° West 413 475 32,000 1,200 Climbing Atlanta Center
Fri 04:05:20 PM 32.5675 -82.8731 281° West 418 481 32,000  Level Atlanta Center
Fri 04:06:20 PM 32.5875 -82.9961 281° West 417 480 32,000 750 Level Atlanta Center
Fri 04:07:20 PM 32.6094 -83.1264 281° West 417 480 33,500 1,550 Climbing Atlanta Center
Fri 04:08:20 PM 32.6292 -83.2594 280° West 412 474 35,100 2,100 Climbing Atlanta Center
Fri 04:09:20 PM 32.6508 -83.3900 281° West 412 474 37,700 2,000 Climbing Atlanta Center
Fri 04:10:20 PM 32.6744 -83.5306 281° West 417 480 39,100 1,700 Climbing Atlanta Center
Fri 04:11:20 PM 32.6936 -83.6661 280° West 422 486 41,100 1,750 Climbing Atlanta Center
Fri 04:12:20 PM 32.6669 -83.8094 258° West 422 486 42,600 950 Climbing Atlanta Center
Fri 04:13:20 PM 32.6419 -83.9525 258° West 432 497 43,000 200 Climbing Atlanta Center
Fri 04:14:20 PM 32.6169 -84.0931 258° West 437 503 43,000  Level Atlanta Center
Fri 04:15:20 PM 32.5939 -84.2336 259° West 437 503 43,000  Level Atlanta Center
Fri 04:16:20 PM 32.5706 -84.3742 259° West 437 503 43,000  Level Atlanta Center
Fri 04:17:20 PM 32.5450 -84.5194 258° West 443 510 43,000  Level Atlanta Center
Fri 04:18:20 PM 32.5194 -84.6597 258° West 448 516 43,000  Level Atlanta Center
Fri 04:19:20 PM 32.4956 -84.8022 259° West 448 516 43,000  Level Atlanta Center
Fri 04:20:20 PM 32.4656 -84.9522 257° West 442 509 43,000  Level Atlanta Center
Fri 04:21:20 PM 32.4456 -85.0922 260° West 442 509 43,000  Level Atlanta Center
Fri 04:22:20 PM 32.4192 -85.2322 257° West 437 503 43,000  Level Atlanta Center
Fri 04:23:20 PM 32.4053 -85.3722 263° West 437 503 43,000  Level Atlanta Center
Fri 04:24:20 PM 32.3869 -85.5147 261° West 437 503 43,000  Level Atlanta Center
Fri 04:25:20 PM 32.3728 -85.6547 263° West 437 503 43,000  Level Atlanta Center
Fri 04:26:20 PM 32.3519 -85.7919 260° West 453 521 43,000  Level Atlanta Center
Fri 04:27:20 PM 32.3353 -85.9342 262° West 459 528 43,000  Level Atlanta Center
Fri 04:28:20 PM 32.3164 -86.0739 261° West 454 522 43,000  Level Atlanta Center
Fri 04:29:20 PM 32.2992 -86.2183 262° West 449 517 43,000  Level Atlanta Center
Fri 04:30:20 PM 32.2800 -86.3628 261° West 444 511 43,000  Level Atlanta Center
Fri 04:31:20 PM 32.2664 -86.5247 264° West 444 511 43,000  Level Atlanta Center
Fri 04:32:20 PM 32.2489 -86.6692 262° West 444 511 43,000  Level Atlanta Center
Fri 04:33:20 PM 32.2272 -86.7936 258° West 444 511 43,000  Level Atlanta Center
Fri 04:34:20 PM 32.2094 -86.9356 262° West 444 511 43,000  Level Atlanta Center
Fri 04:35:20 PM 32.1933 -87.0797 263° West 449 517 43,000  Level Atlanta Center
Fri 04:36:20 PM 32.1753 -87.2239 262° West 449 517 43,000  Level Atlanta Center
Fri 04:37:20 PM 32.1547 -87.3678 260° West 449 517 43,000  Level Atlanta Center
Fri 04:39:27 PM 32.1142 -87.6592 261° West 439 505 43,000  Level Houston Center
Fri 04:40:30 PM 32.0947 -87.7967 261° West 432 497 43,000  Level Houston Center
Fri 04:41:32 PM 32.0708 -87.9647 261° West 435 501 43,000  Level Houston Center
Fri 04:42:34 PM 32.0519 -88.1039 261° West 434 499 43,000  Level Houston Center
Fri 04:43:36 PM 32.0311 -88.2425 260° West 433 498 43,000  Level Houston Center
Fri 04:44:44 PM 32.0094 -88.4072 261° West 429 494 43,000  Level Memphis Center
Fri 04:45:44 PM 31.9886 -88.5450 260° West 429 494 43,000  Level Memphis Center
Fri 04:46:44 PM 31.9675 -88.6825 260° West 429 494 43,000  Level Memphis Center
Fri 04:47:44 PM 31.9464 -88.8200 260° West 429 494 43,000  Level Memphis Center
Fri 04:48:44 PM 31.9231 -88.9794 260° West 440 506 43,000  Level Memphis Center
Fri 04:49:44 PM 31.9017 -89.1142 259° West 440 506 43,000  Level Memphis Center
Fri 04:51:53 PM 31.8606 -89.4011 260° West 429 494 43,000  Level Houston Center
Fri 04:52:55 PM 31.8406 -89.5381 260° West 428 493 43,000  Level Houston Center
Fri 04:53:57 PM 31.8189 -89.6742 259° West 428 493 43,000  Level Houston Center
Fri 04:54:59 PM 31.7972 -89.8133 260° West 424 488 43,000  Level Houston Center
Fri 04:56:01 PM 31.7753 -89.9483 259° West 423 487 43,000  Level Houston Center
Fri 04:57:03 PM 31.7550 -90.0819 260° West 419 482 43,000  Level Houston Center
Fri 04:58:05 PM 31.7281 -90.2447 259° West 425 489 43,000  Level Houston Center
Fri 04:59:07 PM 31.7072 -90.3781 260° West 421 484 43,000  Level Houston Center
Fri 05:00:10 PM 31.6850 -90.5131 259° West 424 488 43,000  Level Houston Center
Fri 05:01:12 PM 31.6628 -90.6481 259° West 425 489 43,000  Level Houston Center
Fri 05:02:14 PM 31.6408 -90.7817 259° West 421 484 43,000  Level Houston Center
Fri 05:03:16 PM 31.6139 -90.9433 259° West 424 488 43,000  Level Houston Center
Fri 05:04:18 PM 31.5931 -91.0769 260° West 420 483 43,000  Level Houston Center
Fri 05:05:20 PM 31.5675 -91.2219 258° West 417 480 43,000  Level Houston Center
Fri 05:06:22 PM 31.5456 -91.3544 259° West 415 478 43,000  Level Houston Center
Fri 05:07:24 PM 31.5225 -91.4858 258° West 412 474 43,000  Level Houston Center
Fri 05:08:27 PM 31.4997 -91.6192 259° West 416 479 43,000  Level Houston Center
Fri 05:09:29 PM 31.4769 -91.7525 259° West 416 479 43,000  Level Houston Center
Fri 05:10:31 PM 31.4539 -91.8853 259° West 416 479 43,000  Level Houston Center
Fri 05:11:33 PM 31.4264 -92.0444 259° West 413 475 43,000  Level Houston Center
Fri 05:12:35 PM 31.4039 -92.1578 257° West 419 482 43,000  Level Houston Center
Fri 05:13:37 PM 31.3758 -92.3200 259° West 425 489 43,000  Level Houston Center
Fri 05:14:39 PM 31.3503 -92.4556 258° West 428 493 43,000  Level Houston Center
Fri 05:15:41 PM 31.3261 -92.5883 258° West 423 487 43,000  Level Houston Center
Fri 05:16:43 PM 31.3044 -92.7253 260° West 426 490 43,000  Level Houston Center
Fri 05:17:46 PM 31.2797 -92.8603 258° West 426 490 43,000  Level Houston Center
Fri 05:18:48 PM 31.2503 -93.0189 258° West 419 482 43,000  Level Houston Center
Fri 05:19:50 PM 31.2253 -93.1517 258° West 421 484 43,000  Level Houston Center
Fri 05:20:52 PM 31.2017 -93.2847 258° West 421 484 43,000  Level Houston Center
Fri 05:21:54 PM 31.1769 -93.4192 258° West 423 487 43,000  Level Houston Center
Fri 05:22:56 PM 31.1519 -93.5525 258° West 424 488 43,000 -145 Level Houston Center
Fri 05:23:58 PM 31.1222 -93.7142 258° West 427 491 42,700 -629 Descending Houston Center
Fri 05:25:00 PM 31.0964 -93.8517 258° West 433 498 41,700 -1,584 Descending Houston Center
Fri 05:26:03 PM 31.0667 -94.0006 257° West 431 496 39,400 -2,640 Descending Houston Center
Fri 05:27:05 PM 31.0392 -94.1428 257° West 444 511 36,200 -2,903 Descending Houston Center
Fri 05:28:07 PM 31.0097 -94.2883 257° West 459 528 33,400 -2,516 Descending Houston Center
Fri 05:29:09 PM 30.9808 -94.4364 257° West 465 535 31,000 -2,371 Descending Houston Center
Fri 05:30:11 PM 30.9517 -94.5856 257° West 466 536 28,500 -2,371 Descending Houston Center
Fri 05:31:13 PM 30.9236 -94.7289 257° West 453 521 26,100 -2,323 Descending Houston Center
Fri 05:32:15 PM 30.8969 -94.8669 257° West 438 504 23,700 -2,323 Descending Houston Center
Fri 05:33:17 PM 30.8706 -94.9983 257° West 420 483 21,300 -2,613 Descending Houston Center
Fri 05:34:19 PM 30.8389 -95.1519 257° West 409 471 18,300 -2,640 Descending Houston Center
Fri 05:35:22 PM 30.8144 -95.2775 257° West 401 461 15,800 -2,400 Descending Houston Center
Fri 05:36:24 PM 30.7892 -95.4031 257° West 399 459 13,300 -2,371 Descending Houston Center
Fri 05:37:26 PM 30.7731 -95.5253 261° West 382 440 10,900 -1,854 Descending Houston Center
Fri 05:38:27 PM 30.7644 -95.6567 266° West 364 419 9,500 -1,122 Descending Houston Center
Fri 05:39:29 PM 30.7589 -95.7594 266° West 284 327 8,600 -823 Descending Houston Center
Fri 05:40:31 PM 30.7683 -95.8433 277° West 247 284 7,800 -960 Descending Houston Center
Fri 05:41:34 PM 30.7892 -95.9283 286° West 263 303 6,600 -1,536 Descending Houston Center
Fri 05:42:36 PM 30.8072 -96.0186 283° West 283 326 4,600 -1,248 Descending Houston Center
Fri 05:43:39 PM 30.8189 -96.1014 279° West 275 316 4,000 -432 Descending Houston Center
Fri 05:44:41 PM 30.7786 -96.1814 240° Southwest 273 314 3,700 -484 Descending Houston Center
Fri 05:45:43 PM 30.7347 -96.2633 238° Southwest 262 302 3,000 -387 Descending Houston Center
Fri 05:46:45 PM 30.7050 -96.3136 235° Southwest 214 246 2,900 -290 Descending Houston Center
Fri 05:47:47 PM 30.6756 -96.3567 232° Southwest 148 170 2,400 -683 Descending Houston Center
Fri 05:48:48 PM 30.6456 -96.3744 207° Southwest 116 133 1,500 -836 Descending Houston Center
Fri 05:49:49 PM 30.6117 -96.3686 172° South 111 128 700 -787 Descending Houston Center
Fri 05:51:00 PM 30.5886 -96.3638 221° Southwest  Level Estimated

Login

Don't have an account? Register now (free) for customized features, flight alerts, and more!